sensor_id;sensor_type;location;lat;lon;timestamp;pressure;altitude;pressure_sealevel;temperature;humidity
34103;BME280;20381;54.498;18.206;2023-05-29T00:00:42;100045.78;;;7.41;53.62
34103;BME280;20381;54.498;18.206;2023-05-29T00:03:08;100041.52;;;7.38;53.69
34103;BME280;20381;54.498;18.206;2023-05-29T00:05:35;100039.92;;;7.34;53.88
34103;BME280;20381;54.498;18.206;2023-05-29T00:08:02;100045.52;;;7.35;54.01
34103;BME280;20381;54.498;18.206;2023-05-29T00:10:29;100049.50;;;7.32;53.95
34103;BME280;20381;54.498;18.206;2023-05-29T00:12:57;100050.44;;;7.30;54.22
34103;BME280;20381;54.498;18.206;2023-05-29T00:15:26;100052.09;;;7.32;54.34
34103;BME280;20381;54.498;18.206;2023-05-29T00:17:52;100045.30;;;7.28;54.41
34103;BME280;20381;54.498;18.206;2023-05-29T00:20:19;100047.08;;;7.26;54.65
34103;BME280;20381;54.498;18.206;2023-05-29T00:22:48;100051.94;;;7.22;54.58
34103;BME280;20381;54.498;18.206;2023-05-29T00:25:14;100051.64;;;7.18;54.59
34103;BME280;20381;54.498;18.206;2023-05-29T00:27:44;100047.35;;;7.17;54.81
34103;BME280;20381;54.498;18.206;2023-05-29T00:30:11;100052.45;;;7.20;54.92
34103;BME280;20381;54.498;18.206;2023-05-29T00:32:41;100043.03;;;7.16;55.02
34103;BME280;20381;54.498;18.206;2023-05-29T00:35:11;100053.75;;;7.20;55.11
34103;BME280;20381;54.498;18.206;2023-05-29T00:37:37;100051.25;;;7.17;55.28
34103;BME280;20381;54.498;18.206;2023-05-29T00:40:05;100053.42;;;7.16;55.38
34103;BME280;20381;54.498;18.206;2023-05-29T00:42:32;100051.39;;;7.11;55.36
34103;BME280;20381;54.498;18.206;2023-05-29T00:44:58;100063.16;;;7.08;55.37
34103;BME280;20381;54.498;18.206;2023-05-29T00:47:25;100061.64;;;7.01;55.60
34103;BME280;20381;54.498;18.206;2023-05-29T00:49:51;100065.20;;;6.97;55.75
34103;BME280;20381;54.498;18.206;2023-05-29T00:52:20;100060.01;;;6.97;55.89
34103;BME280;20381;54.498;18.206;2023-05-29T00:54:46;100059.27;;;6.91;55.97
34103;BME280;20381;54.498;18.206;2023-05-29T00:57:14;100053.69;;;6.90;56.15
34103;BME280;20381;54.498;18.206;2023-05-29T00:59:42;100062.77;;;6.90;56.24
34103;BME280;20381;54.498;18.206;2023-05-29T01:02:10;100059.36;;;6.88;56.38
34103;BME280;20381;54.498;18.206;2023-05-29T01:04:37;100054.68;;;6.86;56.33
34103;BME280;20381;54.498;18.206;2023-05-29T01:07:05;100058.63;;;6.83;56.31
34103;BME280;20381;54.498;18.206;2023-05-29T01:09:32;100066.55;;;6.79;56.31
34103;BME280;20381;54.498;18.206;2023-05-29T01:12:23;100067.09;;;6.75;56.39
34103;BME280;20381;54.498;18.206;2023-05-29T01:14:57;100057.49;;;6.77;56.88
34103;BME280;20381;54.498;18.206;2023-05-29T01:17:28;100061.90;;;6.75;56.76
34103;BME280;20381;54.498;18.206;2023-05-29T01:22:38;100069.17;;;6.77;57.13
34103;BME280;20381;54.498;18.206;2023-05-29T01:27:44;100070.11;;;6.75;57.13
34103;BME280;20381;54.498;18.206;2023-05-29T01:30:17;100060.44;;;6.81;57.54
34103;BME280;20381;54.498;18.206;2023-05-29T01:32:48;100073.44;;;6.80;57.28
34103;BME280;20381;54.498;18.206;2023-05-29T01:35:17;100060.52;;;6.78;57.67
34103;BME280;20381;54.498;18.206;2023-05-29T01:37:43;100060.44;;;6.81;57.41
34103;BME280;20381;54.498;18.206;2023-05-29T01:40:10;100067.95;;;6.74;57.37
34103;BME280;20381;54.498;18.206;2023-05-29T01:42:36;100068.49;;;6.70;57.46
34103;BME280;20381;54.498;18.206;2023-05-29T01:45:04;100065.69;;;6.62;57.47
34103;BME280;20381;54.498;18.206;2023-05-29T01:47:33;100072.42;;;6.53;57.71
34103;BME280;20381;54.498;18.206;2023-05-29T01:50:00;100077.71;;;6.48;58.19
34103;BME280;20381;54.498;18.206;2023-05-29T01:52:29;100069.19;;;6.43;58.21
34103;BME280;20381;54.498;18.206;2023-05-29T01:54:55;100070.95;;;6.41;58.34
34103;BME280;20381;54.498;18.206;2023-05-29T01:57:22;100074.55;;;6.35;58.25
34103;BME280;20381;54.498;18.206;2023-05-29T01:59:49;100077.22;;;6.32;58.38
34103;BME280;20381;54.498;18.206;2023-05-29T02:02:15;100072.94;;;6.31;58.53
34103;BME280;20381;54.498;18.206;2023-05-29T02:04:42;100074.47;;;6.38;58.62
34103;BME280;20381;54.498;18.206;2023-05-29T02:07:08;100076.52;;;6.43;58.72
34103;BME280;20381;54.498;18.206;2023-05-29T02:09:35;100073.53;;;6.42;58.75
34103;BME280;20381;54.498;18.206;2023-05-29T02:12:02;100080.91;;;6.41;58.84
34103;BME280;20381;54.498;18.206;2023-05-29T02:14:28;100078.36;;;6.38;58.81
34103;BME280;20381;54.498;18.206;2023-05-29T02:16:55;100077.30;;;6.29;58.87
34103;BME280;20381;54.498;18.206;2023-05-29T02:19:23;100080.05;;;6.23;59.03
34103;BME280;20381;54.498;18.206;2023-05-29T02:21:51;100076.70;;;6.18;59.28
34103;BME280;20381;54.498;18.206;2023-05-29T02:24:17;100072.34;;;6.20;59.55
34103;BME280;20381;54.498;18.206;2023-05-29T02:26:43;100075.88;;;6.16;59.67
34103;BME280;20381;54.498;18.206;2023-05-29T02:29:10;100075.48;;;6.15;59.70
34103;BME280;20381;54.498;18.206;2023-05-29T02:31:41;100077.17;;;6.16;59.61
34103;BME280;20381;54.498;18.206;2023-05-29T02:34:05;100074.19;;;6.15;59.75
34103;BME280;20381;54.498;18.206;2023-05-29T02:36:32;100075.02;;;6.17;59.80
34103;BME280;20381;54.498;18.206;2023-05-29T02:38:58;100080.59;;;6.18;59.87
34103;BME280;20381;54.498;18.206;2023-05-29T02:41:24;100080.97;;;6.20;60.01
34103;BME280;20381;54.498;18.206;2023-05-29T02:43:51;100073.94;;;6.25;60.19
34103;BME280;20381;54.498;18.206;2023-05-29T02:46:17;100078.59;;;6.29;60.20
34103;BME280;20381;54.498;18.206;2023-05-29T02:48:44;100079.81;;;6.32;60.13
34103;BME280;20381;54.498;18.206;2023-05-29T02:51:10;100071.21;;;6.30;60.14
34103;BME280;20381;54.498;18.206;2023-05-29T02:53:36;100067.75;;;6.31;60.32
34103;BME280;20381;54.498;18.206;2023-05-29T02:56:03;100061.64;;;6.34;60.43
34103;BME280;20381;54.498;18.206;2023-05-29T02:58:29;100064.45;;;6.42;60.63
34103;BME280;20381;54.498;18.206;2023-05-29T03:00:56;100058.70;;;6.47;60.52
34103;BME280;20381;54.498;18.206;2023-05-29T03:03:22;100053.46;;;6.49;60.51
34103;BME280;20381;54.498;18.206;2023-05-29T03:05:48;100055.56;;;6.53;60.50
34103;BME280;20381;54.498;18.206;2023-05-29T03:08:14;100062.05;;;6.53;60.63
34103;BME280;20381;54.498;18.206;2023-05-29T03:10:40;100059.45;;;6.53;60.61
34103;BME280;20381;54.498;18.206;2023-05-29T03:13:07;100058.09;;;6.54;60.56
34103;BME280;20381;54.498;18.206;2023-05-29T03:15:33;100056.69;;;6.59;60.77
34103;BME280;20381;54.498;18.206;2023-05-29T03:17:59;100056.13;;;6.64;60.92
34103;BME280;20381;54.498;18.206;2023-05-29T03:20:25;100055.89;;;6.73;61.23
34103;BME280;20381;54.498;18.206;2023-05-29T03:22:52;100054.50;;;6.76;61.13
34103;BME280;20381;54.498;18.206;2023-05-29T03:25:19;100049.15;;;6.82;61.42
34103;BME280;20381;54.498;18.206;2023-05-29T03:27:46;100054.98;;;6.90;61.41
34103;BME280;20381;54.498;18.206;2023-05-29T03:30:12;100053.02;;;7.00;61.49
34103;BME280;20381;54.498;18.206;2023-05-29T03:32:39;100052.78;;;7.08;61.63
34103;BME280;20381;54.498;18.206;2023-05-29T03:35:07;100046.36;;;7.21;61.72
34103;BME280;20381;54.498;18.206;2023-05-29T03:37:33;100057.29;;;7.32;61.75
34103;BME280;20381;54.498;18.206;2023-05-29T03:39:59;100058.02;;;7.37;61.77
34103;BME280;20381;54.498;18.206;2023-05-29T03:42:26;100064.63;;;7.48;61.86
34103;BME280;20381;54.498;18.206;2023-05-29T03:44:52;100069.48;;;7.60;61.98
34103;BME280;20381;54.498;18.206;2023-05-29T03:47:18;100064.36;;;7.72;62.07
34103;BME280;20381;54.498;18.206;2023-05-29T03:49:45;100057.45;;;7.85;62.15
34103;BME280;20381;54.498;18.206;2023-05-29T03:52:11;100061.31;;;8.00;62.28
34103;BME280;20381;54.498;18.206;2023-05-29T03:54:37;100060.49;;;8.13;62.21
34103;BME280;20381;54.498;18.206;2023-05-29T03:57:03;100059.56;;;8.29;62.54
34103;BME280;20381;54.498;18.206;2023-05-29T03:59:29;100069.45;;;8.46;62.46
34103;BME280;20381;54.498;18.206;2023-05-29T04:01:57;100067.91;;;8.65;62.59
34103;BME280;20381;54.498;18.206;2023-05-29T04:04:24;100066.79;;;8.86;62.75
34103;BME280;20381;54.498;18.206;2023-05-29T04:06:51;100062.22;;;9.04;62.72
34103;BME280;20381;54.498;18.206;2023-05-29T04:09:17;100064.06;;;9.26;63.06
34103;BME280;20381;54.498;18.206;2023-05-29T04:11:44;100058.08;;;9.47;62.97
34103;BME280;20381;54.498;18.206;2023-05-29T04:14:10;100058.16;;;9.68;63.13
34103;BME280;20381;54.498;18.206;2023-05-29T04:16:37;100060.34;;;9.90;63.25
34103;BME280;20381;54.498;18.206;2023-05-29T04:19:04;100057.02;;;10.19;63.28
34103;BME280;20381;54.498;18.206;2023-05-29T04:21:31;100052.30;;;10.50;63.44
34103;BME280;20381;54.498;18.206;2023-05-29T04:23:58;100051.77;;;10.83;63.51
34103;BME280;20381;54.498;18.206;2023-05-29T04:26:25;100052.66;;;11.13;63.42
34103;BME280;20381;54.498;18.206;2023-05-29T04:28:53;100057.17;;;11.38;63.36
34103;BME280;20381;54.498;18.206;2023-05-29T04:31:21;100061.09;;;11.86;63.26
34103;BME280;20381;54.498;18.206;2023-05-29T04:33:49;100061.09;;;11.86;63.26
34103;BME280;20381;54.498;18.206;2023-05-29T04:36:15;100057.97;;;11.97;62.88
34103;BME280;20381;54.498;18.206;2023-05-29T04:38:44;100054.84;;;12.08;63.15
34103;BME280;20381;54.498;18.206;2023-05-29T04:41:11;100056.55;;;12.26;63.28
34103;BME280;20381;54.498;18.206;2023-05-29T04:43:41;100057.75;;;12.47;63.30
34103;BME280;20381;54.498;18.206;2023-05-29T04:46:07;100057.36;;;12.81;63.27
34103;BME280;20381;54.498;18.206;2023-05-29T04:48:35;100069.58;;;13.06;63.14
34103;BME280;20381;54.498;18.206;2023-05-29T04:51:02;100064.93;;;13.29;62.79
34103;BME280;20381;54.498;18.206;2023-05-29T04:53:28;100061.88;;;13.45;62.86
34103;BME280;20381;54.498;18.206;2023-05-29T04:55:56;100054.78;;;13.63;62.66
34103;BME280;20381;54.498;18.206;2023-05-29T04:58:25;100059.38;;;13.75;62.74
34103;BME280;20381;54.498;18.206;2023-05-29T05:00:52;100064.95;;;13.85;62.44
34103;BME280;20381;54.498;18.206;2023-05-29T05:03:18;100053.02;;;13.95;62.40
34103;BME280;20381;54.498;18.206;2023-05-29T05:05:49;100051.55;;;14.05;62.55
34103;BME280;20381;54.498;18.206;2023-05-29T05:08:14;100045.57;;;14.10;62.11
34103;BME280;20381;54.498;18.206;2023-05-29T05:10:41;100055.70;;;14.09;62.27
34103;BME280;20381;54.498;18.206;2023-05-29T05:13:09;100052.38;;;14.22;62.30
34103;BME280;20381;54.498;18.206;2023-05-29T05:15:37;100058.27;;;14.41;62.16
34103;BME280;20381;54.498;18.206;2023-05-29T05:18:03;100055.71;;;14.55;61.98
34103;BME280;20381;54.498;18.206;2023-05-29T05:20:35;100056.66;;;14.62;61.69
34103;BME280;20381;54.498;18.206;2023-05-29T05:23:03;100056.88;;;14.66;61.48
34103;BME280;20381;54.498;18.206;2023-05-29T05:25:32;100054.91;;;14.69;61.50
34103;BME280;20381;54.498;18.206;2023-05-29T05:28:01;100054.24;;;14.73;61.27
34103;BME280;20381;54.498;18.206;2023-05-29T05:30:29;100062.89;;;14.68;61.08
34103;BME280;20381;54.498;18.206;2023-05-29T05:32:56;100051.36;;;14.70;61.36
34103;BME280;20381;54.498;18.206;2023-05-29T05:35:22;100053.34;;;14.95;61.48
34103;BME280;20381;54.498;18.206;2023-05-29T05:37:48;100050.36;;;15.23;61.23
34103;BME280;20381;54.498;18.206;2023-05-29T05:40:16;100052.62;;;15.43;60.77
34103;BME280;20381;54.498;18.206;2023-05-29T05:42:42;100052.61;;;15.58;60.51
34103;BME280;20381;54.498;18.206;2023-05-29T05:45:15;100055.80;;;15.70;60.17
34103;BME280;20381;54.498;18.206;2023-05-29T05:47:38;100060.87;;;15.80;60.06
34103;BME280;20381;54.498;18.206;2023-05-29T05:50:05;100055.72;;;15.99;60.01
34103;BME280;20381;54.498;18.206;2023-05-29T05:52:31;100056.62;;;16.19;59.70
34103;BME280;20381;54.498;18.206;2023-05-29T05:54:59;100058.80;;;16.32;59.25
34103;BME280;20381;54.498;18.206;2023-05-29T05:57:25;100064.54;;;16.52;59.32
34103;BME280;20381;54.498;18.206;2023-05-29T05:59:53;100051.10;;;16.69;59.05
34103;BME280;20381;54.498;18.206;2023-05-29T06:02:19;100057.63;;;16.84;58.73
34103;BME280;20381;54.498;18.206;2023-05-29T06:04:45;100056.25;;;16.91;57.57
34103;BME280;20381;54.498;18.206;2023-05-29T06:07:11;100065.69;;;16.88;57.77
34103;BME280;20381;54.498;18.206;2023-05-29T06:09:38;100064.55;;;16.92;57.53
34103;BME280;20381;54.498;18.206;2023-05-29T06:12:05;100063.16;;;16.99;57.14
34103;BME280;20381;54.498;18.206;2023-05-29T06:14:33;100062.86;;;17.04;56.95
34103;BME280;20381;54.498;18.206;2023-05-29T06:17:00;100066.59;;;17.19;56.96
34103;BME280;20381;54.498;18.206;2023-05-29T06:19:26;100070.91;;;17.33;56.76
34103;BME280;20381;54.498;18.206;2023-05-29T06:21:53;100063.52;;;17.51;55.88
34103;BME280;20381;54.498;18.206;2023-05-29T06:24:19;100067.64;;;17.42;55.76
34103;BME280;20381;54.498;18.206;2023-05-29T06:26:46;100068.27;;;17.46;55.45
34103;BME280;20381;54.498;18.206;2023-05-29T06:29:12;100070.33;;;17.48;54.89
34103;BME280;20381;54.498;18.206;2023-05-29T06:31:38;100073.33;;;17.49;54.68
34103;BME280;20381;54.498;18.206;2023-05-29T06:34:05;100075.17;;;17.54;54.59
34103;BME280;20381;54.498;18.206;2023-05-29T06:36:31;100071.88;;;17.63;54.72
34103;BME280;20381;54.498;18.206;2023-05-29T06:38:58;100073.95;;;17.84;54.66
34103;BME280;20381;54.498;18.206;2023-05-29T06:41:25;100070.41;;;18.15;54.36
34103;BME280;20381;54.498;18.206;2023-05-29T06:43:51;100068.36;;;18.37;53.82
34103;BME280;20381;54.498;18.206;2023-05-29T06:46:17;100068.35;;;18.66;54.36
34103;BME280;20381;54.498;18.206;2023-05-29T06:48:43;100075.78;;;18.85;53.09
34103;BME280;20381;54.498;18.206;2023-05-29T06:51:10;100071.84;;;19.08;52.88
34103;BME280;20381;54.498;18.206;2023-05-29T06:53:37;100073.67;;;19.47;53.07
34103;BME280;20381;54.498;18.206;2023-05-29T06:56:04;100074.20;;;20.12;53.25
34103;BME280;20381;54.498;18.206;2023-05-29T06:58:32;100076.21;;;21.20;53.40
34103;BME280;20381;54.498;18.206;2023-05-29T07:00:58;100066.15;;;22.30;52.11
34103;BME280;20381;54.498;18.206;2023-05-29T07:03:26;100065.53;;;22.94;50.49
34103;BME280;20381;54.498;18.206;2023-05-29T07:05:52;100061.90;;;23.56;50.83
34103;BME280;20381;54.498;18.206;2023-05-29T07:08:19;100066.93;;;24.72;50.00
34103;BME280;20381;54.498;18.206;2023-05-29T07:10:45;100070.47;;;25.59;49.88
34103;BME280;20381;54.498;18.206;2023-05-29T07:13:14;100072.70;;;26.31;48.04
34103;BME280;20381;54.498;18.206;2023-05-29T07:15:41;100061.97;;;27.05;46.77
34103;BME280;20381;54.498;18.206;2023-05-29T07:18:07;100065.14;;;27.64;46.74
34103;BME280;20381;54.498;18.206;2023-05-29T07:20:33;100063.41;;;28.33;46.39
34103;BME280;20381;54.498;18.206;2023-05-29T07:22:59;100059.22;;;29.30;45.97
34103;BME280;20381;54.498;18.206;2023-05-29T07:25:26;100054.86;;;30.16;45.12
34103;BME280;20381;54.498;18.206;2023-05-29T07:27:52;100049.94;;;30.84;43.87
34103;BME280;20381;54.498;18.206;2023-05-29T07:30:18;100056.83;;;31.28;42.98
34103;BME280;20381;54.498;18.206;2023-05-29T07:32:44;100062.62;;;31.60;42.22
34103;BME280;20381;54.498;18.206;2023-05-29T07:35:11;100070.70;;;32.08;40.18
34103;BME280;20381;54.498;18.206;2023-05-29T07:37:37;100063.87;;;32.25;40.30
34103;BME280;20381;54.498;18.206;2023-05-29T07:40:04;100066.09;;;32.46;38.66
34103;BME280;20381;54.498;18.206;2023-05-29T07:42:33;100069.34;;;32.52;37.50
34103;BME280;20381;54.498;18.206;2023-05-29T07:45:00;100074.42;;;32.51;36.87
34103;BME280;20381;54.498;18.206;2023-05-29T07:47:30;100076.20;;;32.74;36.12
34103;BME280;20381;54.498;18.206;2023-05-29T07:49:54;100074.11;;;33.03;34.93
34103;BME280;20381;54.498;18.206;2023-05-29T07:52:20;100073.67;;;33.13;34.32
34103;BME280;20381;54.498;18.206;2023-05-29T07:54:46;100077.53;;;33.50;33.01
34103;BME280;20381;54.498;18.206;2023-05-29T07:57:14;100074.05;;;33.88;33.41
34103;BME280;20381;54.498;18.206;2023-05-29T07:59:40;100074.78;;;33.86;32.23
34103;BME280;20381;54.498;18.206;2023-05-29T08:02:08;100076.12;;;33.93;31.12
34103;BME280;20381;54.498;18.206;2023-05-29T08:04:36;100074.28;;;34.02;31.08
34103;BME280;20381;54.498;18.206;2023-05-29T08:07:03;100074.63;;;34.35;28.26
34103;BME280;20381;54.498;18.206;2023-05-29T08:09:29;100072.41;;;34.50;29.43
34103;BME280;20381;54.498;18.206;2023-05-29T08:11:56;100077.22;;;34.89;28.96
34103;BME280;20381;54.498;18.206;2023-05-29T08:14:22;100073.59;;;34.86;27.77
34103;BME280;20381;54.498;18.206;2023-05-29T08:16:48;100073.64;;;35.05;27.99
34103;BME280;20381;54.498;18.206;2023-05-29T08:19:15;100074.74;;;35.59;27.35
34103;BME280;20381;54.498;18.206;2023-05-29T08:21:41;100073.59;;;36.15;26.83
34103;BME280;20381;54.498;18.206;2023-05-29T08:24:08;100074.19;;;36.17;26.30
34103;BME280;20381;54.498;18.206;2023-05-29T08:26:35;100067.67;;;36.60;25.89
34103;BME280;20381;54.498;18.206;2023-05-29T08:29:01;100073.80;;;37.00;25.86
34103;BME280;20381;54.498;18.206;2023-05-29T08:31:29;100074.52;;;37.45;24.98
34103;BME280;20381;54.498;18.206;2023-05-29T08:33:56;100072.78;;;38.08;24.92
34103;BME280;20381;54.498;18.206;2023-05-29T08:36:23;100069.90;;;39.16;22.68
34103;BME280;20381;54.498;18.206;2023-05-29T08:38:49;100073.92;;;38.91;23.10
34103;BME280;20381;54.498;18.206;2023-05-29T08:41:28;100069.52;;;38.90;23.10
34103;BME280;20381;54.498;18.206;2023-05-29T08:43:56;100074.05;;;38.85;22.76
34103;BME280;20381;54.498;18.206;2023-05-29T08:46:24;100074.05;;;39.41;22.09
34103;BME280;20381;54.498;18.206;2023-05-29T08:48:53;100075.16;;;40.16;21.71
34103;BME280;20381;54.498;18.206;2023-05-29T08:51:20;100071.84;;;40.70;21.61
34103;BME280;20381;54.498;18.206;2023-05-29T08:53:47;100069.92;;;41.74;20.79
34103;BME280;20381;54.498;18.206;2023-05-29T08:56:13;100075.50;;;42.25;20.31
34103;BME280;20381;54.498;18.206;2023-05-29T08:58:40;100079.92;;;42.36;19.87
34103;BME280;20381;54.498;18.206;2023-05-29T09:01:09;100075.98;;;43.09;19.68
34103;BME280;20381;54.498;18.206;2023-05-29T09:03:36;100070.97;;;43.37;18.93
34103;BME280;20381;54.498;18.206;2023-05-29T09:06:04;100073.48;;;43.30;18.17
34103;BME280;20381;54.498;18.206;2023-05-29T09:08:33;100075.34;;;43.40;18.00
34103;BME280;20381;54.498;18.206;2023-05-29T09:10:59;100079.84;;;43.08;17.84
34103;BME280;20381;54.498;18.206;2023-05-29T09:13:26;100077.38;;;42.99;17.38
34103;BME280;20381;54.498;18.206;2023-05-29T09:16:02;100079.08;;;42.48;17.18
34103;BME280;20381;54.498;18.206;2023-05-29T09:18:29;100080.99;;;42.89;16.82
34103;BME280;20381;54.498;18.206;2023-05-29T09:20:58;100078.79;;;42.68;16.42
34103;BME280;20381;54.498;18.206;2023-05-29T09:23:26;100078.00;;;42.75;16.24
34103;BME280;20381;54.498;18.206;2023-05-29T09:25:53;100069.64;;;43.21;16.02
34103;BME280;20381;54.498;18.206;2023-05-29T09:28:26;100070.89;;;43.49;15.71
34103;BME280;20381;54.498;18.206;2023-05-29T09:30:51;100075.37;;;43.32;15.56
34103;BME280;20381;54.498;18.206;2023-05-29T09:33:17;100070.42;;;43.34;15.20
34103;BME280;20381;54.498;18.206;2023-05-29T09:35:46;100067.20;;;43.17;15.05
34103;BME280;20381;54.498;18.206;2023-05-29T09:38:17;100068.14;;;43.57;14.90
34103;BME280;20381;54.498;18.206;2023-05-29T09:40:44;100071.85;;;43.82;14.08
34103;BME280;20381;54.498;18.206;2023-05-29T09:43:17;100082.45;;;43.49;14.48
34103;BME280;20381;54.498;18.206;2023-05-29T09:45:48;100078.44;;;43.80;14.22
34103;BME280;20381;54.498;18.206;2023-05-29T09:48:22;100070.77;;;43.77;14.32
34103;BME280;20381;54.498;18.206;2023-05-29T09:50:46;100068.30;;;44.20;13.35
34103;BME280;20381;54.498;18.206;2023-05-29T09:53:21;100074.80;;;43.98;13.60
34103;BME280;20381;54.498;18.206;2023-05-29T09:55:54;100079.95;;;44.07;13.46
34103;BME280;20381;54.498;18.206;2023-05-29T09:58:24;100081.13;;;44.35;13.58
34103;BME280;20381;54.498;18.206;2023-05-29T10:00:52;100077.19;;;44.73;13.11
34103;BME280;20381;54.498;18.206;2023-05-29T10:03:19;100083.59;;;44.68;13.02
34103;BME280;20381;54.498;18.206;2023-05-29T10:05:49;100081.86;;;45.04;13.00
34103;BME280;20381;54.498;18.206;2023-05-29T10:08:19;100083.69;;;45.11;12.75
34103;BME280;20381;54.498;18.206;2023-05-29T10:11:01;100081.52;;;45.35;12.77
34103;BME280;20381;54.498;18.206;2023-05-29T10:13:33;100082.45;;;46.25;12.59
34103;BME280;20381;54.498;18.206;2023-05-29T10:16:01;100081.95;;;46.56;12.44
34103;BME280;20381;54.498;18.206;2023-05-29T10:18:42;100084.34;;;47.20;12.06
34103;BME280;20381;54.498;18.206;2023-05-29T10:21:12;100079.95;;;47.03;11.81
34103;BME280;20381;54.498;18.206;2023-05-29T10:23:41;100074.86;;;47.51;11.93
34103;BME280;20381;54.498;18.206;2023-05-29T10:26:12;100073.95;;;45.65;11.60
34103;BME280;20381;54.498;18.206;2023-05-29T10:28:44;100069.52;;;44.99;11.76
34103;BME280;20381;54.498;18.206;2023-05-29T10:31:17;100074.19;;;45.25;11.62
34103;BME280;20381;54.498;18.206;2023-05-29T10:34:02;100076.67;;;46.08;11.74
34103;BME280;20381;54.498;18.206;2023-05-29T10:36:35;100075.83;;;46.42;11.50
34103;BME280;20381;54.498;18.206;2023-05-29T10:39:03;100073.84;;;46.46;11.44
34103;BME280;20381;54.498;18.206;2023-05-29T10:41:30;100078.50;;;46.31;11.47
34103;BME280;20381;54.498;18.206;2023-05-29T10:44:00;100079.73;;;46.23;11.10
34103;BME280;20381;54.498;18.206;2023-05-29T10:49:18;100077.22;;;46.24;11.18
34103;BME280;20381;54.498;18.206;2023-05-29T10:51:45;100076.18;;;46.99;11.10
34103;BME280;20381;54.498;18.206;2023-05-29T10:54:11;100072.62;;;46.68;10.82
34103;BME280;20381;54.498;18.206;2023-05-29T10:56:40;100066.05;;;46.15;10.80
34103;BME280;20381;54.498;18.206;2023-05-29T10:59:12;100067.48;;;45.55;10.76
34103;BME280;20381;54.498;18.206;2023-05-29T11:01:38;100062.86;;;44.47;10.65
34103;BME280;20381;54.498;18.206;2023-05-29T11:06:47;100066.04;;;41.65;11.21
34103;BME280;20381;54.498;18.206;2023-05-29T11:09:35;100062.79;;;41.78;11.13
34103;BME280;20381;54.498;18.206;2023-05-29T11:12:22;100063.95;;;41.97;11.52
34103;BME280;20381;54.498;18.206;2023-05-29T11:15:05;100059.85;;;42.20;11.20
34103;BME280;20381;54.498;18.206;2023-05-29T11:20:08;100064.39;;;41.61;11.49
34103;BME280;20381;54.498;18.206;2023-05-29T11:25:16;100055.94;;;41.07;11.75
34103;BME280;20381;54.498;18.206;2023-05-29T11:27:43;100053.87;;;39.66;11.71
34103;BME280;20381;54.498;18.206;2023-05-29T11:30:11;100058.17;;;39.37;12.08
34103;BME280;20381;54.498;18.206;2023-05-29T11:32:39;100057.11;;;39.38;12.12
34103;BME280;20381;54.498;18.206;2023-05-29T11:35:10;100051.41;;;39.43;12.18
34103;BME280;20381;54.498;18.206;2023-05-29T11:37:39;100054.43;;;38.85;12.18
34103;BME280;20381;54.498;18.206;2023-05-29T11:40:09;100047.28;;;38.65;12.40
34103;BME280;20381;54.498;18.206;2023-05-29T11:42:36;100052.82;;;38.70;12.67
34103;BME280;20381;54.498;18.206;2023-05-29T11:45:12;100052.19;;;38.63;12.38
34103;BME280;20381;54.498;18.206;2023-05-29T11:47:58;100062.88;;;38.19;12.74
34103;BME280;20381;54.498;18.206;2023-05-29T11:50:30;100057.16;;;38.18;12.76
34103;BME280;20381;54.498;18.206;2023-05-29T11:52:58;100064.16;;;37.71;12.58
34103;BME280;20381;54.498;18.206;2023-05-29T11:55:26;100059.87;;;36.99;12.87
34103;BME280;20381;54.498;18.206;2023-05-29T11:57:58;100064.70;;;36.50;13.02
34103;BME280;20381;54.498;18.206;2023-05-29T12:00:25;100066.66;;;35.80;13.02
34103;BME280;20381;54.498;18.206;2023-05-29T12:02:52;100065.72;;;34.53;13.10
34103;BME280;20381;54.498;18.206;2023-05-29T12:05:18;100066.00;;;33.03;13.20
34103;BME280;20381;54.498;18.206;2023-05-29T12:07:55;100062.86;;;31.30;13.51
34103;BME280;20381;54.498;18.206;2023-05-29T12:10:22;100070.89;;;30.39;14.04
34103;BME280;20381;54.498;18.206;2023-05-29T12:12:58;100071.72;;;29.52;14.08
34103;BME280;20381;54.498;18.206;2023-05-29T12:15:24;100072.70;;;28.54;14.80
34103;BME280;20381;54.498;18.206;2023-05-29T12:17:54;100071.45;;;27.75;14.99
34103;BME280;20381;54.498;18.206;2023-05-29T12:20:24;100070.38;;;26.85;15.01
34103;BME280;20381;54.498;18.206;2023-05-29T12:22:53;100073.37;;;26.25;15.34
34103;BME280;20381;54.498;18.206;2023-05-29T12:25:21;100076.35;;;25.63;15.40
34103;BME280;20381;54.498;18.206;2023-05-29T12:27:48;100071.18;;;25.09;15.82
34103;BME280;20381;54.498;18.206;2023-05-29T12:30:20;100072.13;;;24.38;16.23
34103;BME280;20381;54.498;18.206;2023-05-29T12:32:49;100070.44;;;24.19;16.56
34103;BME280;20381;54.498;18.206;2023-05-29T12:35:25;100076.98;;;23.89;16.89
34103;BME280;20381;54.498;18.206;2023-05-29T12:38:02;100075.23;;;23.70;17.38
34103;BME280;20381;54.498;18.206;2023-05-29T12:40:27;100083.61;;;23.48;17.85
34103;BME280;20381;54.498;18.206;2023-05-29T12:42:59;100080.45;;;23.11;18.01
34103;BME280;20381;54.498;18.206;2023-05-29T12:45:27;100070.23;;;22.96;18.02
34103;BME280;20381;54.498;18.206;2023-05-29T12:47:59;100077.67;;;22.73;18.19
34103;BME280;20381;54.498;18.206;2023-05-29T12:50:37;100080.20;;;22.46;18.20
34103;BME280;20381;54.498;18.206;2023-05-29T12:55:40;100077.02;;;22.07;18.93
34103;BME280;20381;54.498;18.206;2023-05-29T12:58:06;100078.65;;;21.89;19.06
34103;BME280;20381;54.498;18.206;2023-05-29T13:00:37;100085.61;;;21.71;19.43
34103;BME280;20381;54.498;18.206;2023-05-29T13:03:05;100083.49;;;21.49;19.75
34103;BME280;20381;54.498;18.206;2023-05-29T13:05:32;100088.52;;;21.37;19.88